This is the latest recevied weather packets stored in our database for station/object G4CVN. If no packets are shown the sender has not sent any weather packets the latest 10 day(s).
| Time | Temp. | Humidity | Pressure | Rain* | Wind** | Luminosity | Snow |
|---|---|---|---|---|---|---|---|
| 1778111716 | 10° C | 83% | 1018.9 hPa | 0 mm | - | 0 W/m² | - |
| 1778109316 | 10° C | 83% | 1018.7 hPa | 0 mm | - | 0 W/m² | - |
| 1778108716 | 10.56° C | 83% | 1018.7 hPa | 0 mm | - | 0 W/m² | - |
| 1778103916 | 11.11° C | 77% | 1018.6 hPa | 0 mm | - | 0 W/m² | - |
| 1778102717 | 11.11° C | 76% | 1018.5 hPa | 0 mm | - | 0 W/m² | - |
| 1778096116 | 12.78° C | 67% | 1017.5 hPa | 0 mm | - | 0 W/m² | - |
| 1778087117 | 14.44° C | 62% | 1016.6 hPa | 0 mm | - | 72 W/m² | - |
| 1778086516 | 14.44° C | 61% | 1016.6 hPa | 0 mm | - | 83 W/m² | - |
| 1778085317 | 15° C | 61% | 1016.4 hPa | 0 mm | - | 531 W/m² | - |
| 1778084117 | 15° C | 60% | 1016.5 hPa | 0 mm | - | 99 W/m² | - |
| 1778082916 | 15.56° C | 59% | 1016.5 hPa | 0 mm | - | 259 W/m² | - |
| 1778077516 | 16.11° C | 55% | 1016.4 hPa | 0 mm | - | 99 W/m² | - |
| 1778075717 | 17.22° C | 51% | 1016.3 hPa | 0 mm | - | 114 W/m² | - |
| 1778075137 | 17.22° C | 50% | 1016.4 hPa | 0 mm | - | 185 W/m² | - |
| 1778070917 | 18.89° C | 50% | 1016.4 hPa | 0 mm | - | 934 W/m² | - |
| 1778070317 | 18.33° C | 51% | 1016.3 hPa | 0 mm | - | 897 W/m² | - |
| 1778069117 | 18.33° C | 50% | 1016.5 hPa | 0 mm | - | 854 W/m² | - |
| 1778066117 | 17.22° C | 51% | 1016.5 hPa | 0 mm | - | 882 W/m² | - |
| 1778063137 | 15.56° C | 58% | 1016.6 hPa | 0 mm | - | 770 W/m² | - |
| 1778060117 | 15° C | 62% | 1016.7 hPa | 0 mm | - | 664 W/m² | - |
| 1778049317 | 8.89° C | 84% | 1016.4 hPa | 0 mm | - | 51 W/m² | - |
| 1778048717 | 8.89° C | 85% | 1016.3 hPa | 0 mm | - | 41 W/m² | - |
| 1778047517 | 8.33° C | 86% | 1016.4 hPa | 0 mm | - | 35 W/m² | - |
| 1778045737 | 8.33° C | 84% | 1016.2 hPa | 0 mm | - | 21 W/m² | - |
| 1778045117 | 8.33° C | 84% | 1016.2 hPa | 0 mm | - | 17 W/m² | - |
* Rain latest hour (hover to see other rain measurements)
** Current wind speed in m/s (hover to see current wind gust speed)